Time;durP1;ratioP1;P1;durP2;ratioP2;P2;SDS_P1;SDS_P2;PMS_P1;PMS_P2;Temp;Humidity;BMP_temperature;BMP_pressure;BME280_temperature;BME280_humidity;BME280_pressure;Samples;Min_cycle;Max_cycle;Signal;HPM_P1;HPM_P2
2022/04/16 00:00:21;;;;;;;3.65;3.30;;;11.80;64.00;;;;;;5054584;28;20124;-64
2022/04/16 00:02:46;;;;;;;4.72;3.05;;;11.80;64.10;;;;;;5054729;28;20131;-65
2022/04/16 00:05:13;;;;;;;3.72;3.00;;;11.70;64.10;;;;;;5057677;28;20738;-64
2022/04/16 00:07:39;;;;;;;4.25;3.10;;;11.70;64.10;;;;;;5059139;28;20501;-65
2022/04/16 00:10:05;;;;;;;3.58;3.08;;;11.70;64.30;;;;;;5057494;28;20036;-64
2022/04/16 00:12:31;;;;;;;3.55;2.75;;;11.60;64.30;;;;;;5057230;28;20543;-64
2022/04/16 00:14:57;;;;;;;3.30;3.00;;;11.60;64.50;;;;;;5058034;28;20056;-65
2022/04/16 00:17:22;;;;;;;4.18;3.03;;;11.60;64.50;;;;;;5056317;28;20108;-65
2022/04/16 00:19:48;;;;;;;3.40;3.10;;;11.50;64.40;;;;;;5056318;28;20036;-65
2022/04/16 00:22:14;;;;;;;4.22;3.47;;;11.60;64.50;;;;;;5056500;28;20072;-64
2022/04/16 00:24:40;;;;;;;5.88;3.15;;;11.50;64.50;;;;;;5057202;28;20118;-61
2022/04/16 00:27:10;;;;;;;5.20;3.40;;;11.50;64.60;;;;;;5055524;28;20040;-65
2022/04/16 00:29:36;;;;;;;3.42;3.13;;;11.50;64.60;;;;;;5057120;28;20037;-65
2022/04/16 00:32:04;;;;;;;4.63;3.33;;;11.40;64.50;;;;;;5057994;28;20039;-64
2022/04/16 00:34:31;;;;;;;3.50;3.20;;;11.40;64.70;;;;;;5056129;28;20036;-64
2022/04/16 00:36:57;;;;;;;3.50;3.05;;;11.40;64.70;;;;;;5056594;28;20032;-65
2022/04/16 00:39:22;;;;;;;4.25;3.17;;;11.40;64.80;;;;;;5057186;28;20619;-65
2022/04/16 00:41:50;;;;;;;4.53;3.30;;;11.30;64.80;;;;;;5057105;28;20448;-65
2022/04/16 00:44:16;;;;;;;3.53;3.22;;;11.30;64.80;;;;;;5057488;28;20456;-64
2022/04/16 00:46:41;;;;;;;4.50;3.30;;;11.30;64.90;;;;;;5056373;28;20120;-65
2022/04/16 00:49:07;;;;;;;3.35;3.05;;;11.20;65.80;;;;;;5056508;28;20078;-64
2022/04/16 00:51:34;;;;;;;4.07;3.10;;;11.20;65.00;;;;;;5057156;28;20033;-65
2022/04/16 00:54:00;;;;;;;4.30;3.42;;;11.20;65.20;;;;;;5062974;28;20468;-65
2022/04/16 00:56:26;;;;;;;4.63;3.00;;;11.10;65.20;;;;;;5056329;28;20336;-65
2022/04/16 00:58:52;;;;;;;3.45;3.05;;;11.10;65.30;;;;;;5056220;28;20082;-65
2022/04/16 01:01:18;;;;;;;4.13;3.28;;;11.10;65.40;;;;;;5058199;28;20471;-66
2022/04/16 01:03:45;;;;;;;3.25;2.95;;;11.00;65.50;;;;;;5055381;28;20094;-65
2022/04/16 01:06:16;;;;;;;4.72;3.35;;;11.00;65.70;;;;;;5058986;28;20492;-65
2022/04/16 01:08:45;;;;;;;3.50;3.20;;;11.00;65.80;;;;;;5065189;28;20398;-65
2022/04/16 01:11:12;;;;;;;5.43;3.38;;;10.90;65.90;;;;;;5055641;28;20058;-65
2022/04/16 01:13:38;;;;;;;3.40;3.10;;;11.00;66.00;;;;;;5057823;28;20294;-64
2022/04/16 01:16:07;;;;;;;3.45;3.03;;;10.90;66.00;;;;;;5057456;28;20063;-64
2022/04/16 01:18:34;;;;;;;4.10;3.17;;;10.90;66.30;;;;;;5060165;28;20034;-64
2022/04/16 01:21:02;;;;;;;3.33;3.03;;;10.90;66.20;;;;;;5059230;28;20040;-63
2022/04/16 01:23:28;;;;;;;6.20;3.25;;;10.90;66.20;;;;;;5059287;28;20054;-65
2022/04/16 01:25:56;;;;;;;4.97;3.00;;;10.90;66.40;;;;;;5059292;28;20133;-65
2022/04/16 01:28:22;;;;;;;5.43;3.08;;;10.90;66.40;;;;;;5059822;28;20560;-64
2022/04/16 01:30:48;;;;;;;3.45;3.00;;;10.80;66.30;;;;;;5057555;28;20044;-64
2022/04/16 01:33:16;;;;;;;3.47;2.95;;;10.80;66.40;;;;;;5056515;28;20029;-65
2022/04/16 01:35:41;;;;;;;3.50;3.10;;;10.80;66.40;;;;;;5057721;28;20033;-65
2022/04/16 01:38:07;;;;;;;3.55;3.08;;;10.80;66.60;;;;;;5057173;28;20056;-64
2022/04/16 01:40:33;;;;;;;3.22;2.90;;;10.80;66.50;;;;;;5059460;28;20276;-65
2022/04/16 01:43:00;;;;;;;3.33;2.95;;;10.80;66.60;;;;;;5062709;28;20040;-64
2022/04/16 01:45:26;;;;;;;3.40;3.10;;;10.70;66.60;;;;;;5057118;28;20036;-65
2022/04/16 01:47:52;;;;;;;3.70;3.10;;;10.70;66.60;;;;;;5058847;28;20036;-65
2022/04/16 01:50:19;;;;;;;3.88;3.35;;;10.70;67.60;;;;;;5058294;28;20421;-65
2022/04/16 01:52:46;;;;;;;4.38;3.10;;;10.70;66.70;;;;;;5064560;28;20036;-64
2022/04/16 01:55:14;;;;;;;5.93;3.85;;;10.70;66.80;;;;;;5057176;28;20028;-64
2022/04/16 01:57:41;;;;;;;3.88;3.30;;;10.70;66.80;;;;;;5057530;28;20026;-64
2022/04/16 02:00:09;;;;;;;4.32;3.42;;;10.70;66.80;;;;;;5054354;28;20128;-65
2022/04/16 02:02:36;;;;;;;5.60;3.70;;;10.70;66.90;;;;;;5058174;28;20119;-64
2022/04/16 02:05:06;;;;;;;4.90;3.25;;;10.60;66.90;;;;;;5057822;28;20135;-65
2022/04/16 02:07:31;;;;;;;3.53;3.22;;;10.60;66.90;;;;;;5058289;28;20397;-64
2022/04/16 02:09:57;;;;;;;3.42;3.13;;;10.60;66.90;;;;;;5057797;28;20033;-64
2022/04/16 02:12:23;;;;;;;5.22;3.63;;;10.60;66.90;;;;;;5055338;28;20119;-64
2022/04/16 02:14:48;;;;;;;3.80;3.25;;;10.60;66.90;;;;;;5059463;28;20123;-64
2022/04/16 02:17:14;;;;;;;3.88;3.33;;;10.60;66.80;;;;;;5057145;28;20046;-65
2022/04/16 02:19:41;;;;;;;4.07;3.20;;;10.50;66.70;;;;;;5059612;28;20074;-64
2022/04/16 02:22:07;;;;;;;4.25;3.20;;;10.50;66.70;;;;;;5056641;28;20184;-64
2022/04/16 02:24:33;;;;;;;4.28;2.85;;;10.50;66.70;;;;;;5056389;28;20029;-65
2022/04/16 02:26:58;;;;;;;4.20;2.90;;;10.30;66.60;;;;;;5056791;28;20511;-65
2022/04/16 02:29:24;;;;;;;4.05;2.88;;;10.40;66.70;;;;;;5057908;28;20037;-65
2022/04/16 02:31:50;;;;;;;3.33;2.80;;;10.30;66.70;;;;;;5056920;28;20040;-65
2022/04/16 02:34:18;;;;;;;3.30;2.72;;;10.30;66.70;;;;;;5058953;28;20040;-64
2022/04/16 02:36:43;;;;;;;4.70;3.17;;;10.30;66.90;;;;;;5058474;28;20397;-65
2022/04/16 02:39:09;;;;;;;3.13;2.70;;;10.20;66.90;;;;;;5055053;28;20028;-65
2022/04/16 02:41:35;;;;;;;2.95;2.75;;;10.20;67.10;;;;;;5057150;28;20041;-63
2022/04/16 02:44:01;;;;;;;3.05;2.75;;;10.10;67.10;;;;;;5060187;28;20040;-65
2022/04/16 02:49:14;;;;;;;3.30;3.00;;;10.10;68.20;;;;;;5054669;28;21733;-64
2022/04/16 02:51:39;;;;;;;4.60;3.13;;;10.00;67.30;;;;;;5056467;28;20524;-64
2022/04/16 02:54:05;;;;;;;3.72;3.05;;;10.00;67.50;;;;;;5054065;28;20031;-65
2022/04/16 02:56:31;;;;;;;3.25;2.60;;;9.90;67.50;;;;;;5055632;28;21141;-65
2022/04/16 02:58:57;;;;;;;2.55;2.40;;;9.90;67.60;;;;;;5057811;28;20122;-65
2022/04/16 03:01:23;;;;;;;4.03;2.95;;;9.90;67.70;;;;;;5055122;28;20513;-65
2022/04/16 03:03:48;;;;;;;3.40;2.58;;;9.90;67.80;;;;;;5055438;28;20033;-64
2022/04/16 03:06:14;;;;;;;3.10;2.80;;;9.90;68.00;;;;;;5056056;28;20228;-64
2022/04/16 03:08:40;;;;;;;3.30;2.95;;;9.90;68.00;;;;;;5056713;28;20033;-64
2022/04/16 03:11:05;;;;;;;2.75;2.55;;;9.80;68.00;;;;;;5055308;28;20668;-65
2022/04/16 03:13:34;;;;;;;4.25;2.90;;;9.80;68.00;;;;;;5057620;28;20024;-64
2022/04/16 03:18:45;;;;;;;3.70;2.78;;;9.80;68.00;;;;;;5057021;28;20043;-65
2022/04/16 03:21:11;;;;;;;3.00;2.80;;;9.80;67.90;;;;;;5057010;28;20044;-64
2022/04/16 03:23:37;;;;;;;2.88;2.60;;;9.80;67.90;;;;;;5058260;28;20033;-65
2022/04/16 03:26:02;;;;;;;3.63;2.83;;;9.80;67.80;;;;;;5055389;28;20182;-64
2022/04/16 03:28:28;;;;;;;2.85;2.58;;;9.70;67.80;;;;;;5054111;28;20114;-64
2022/04/16 03:30:54;;;;;;;3.13;2.83;;;9.80;67.90;;;;;;5056800;28;20033;-65
2022/04/16 03:33:20;;;;;;;2.80;2.60;;;9.70;67.80;;;;;;5053912;28;20025;-65
2022/04/16 03:35:46;;;;;;;3.42;2.75;;;9.70;67.90;;;;;;5055616;28;20029;-64
2022/04/16 03:38:12;;;;;;;4.35;2.60;;;9.60;67.90;;;;;;5055021;28;20056;-63
2022/04/16 03:40:38;;;;;;;3.20;2.90;;;9.70;68.00;;;;;;5055965;28;20083;-64
2022/04/16 03:43:04;;;;;;;3.10;2.65;;;9.60;67.90;;;;;;5055156;28;20033;-65
2022/04/16 03:45:34;;;;;;;2.70;2.50;;;9.60;68.00;;;;;;5053487;28;21226;-65
2022/04/16 03:48:01;;;;;;;3.60;2.70;;;9.50;68.10;;;;;;5054773;28;20090;-64
2022/04/16 03:50:28;;;;;;;3.03;2.78;;;9.50;68.00;;;;;;5054937;28;20383;-65
2022/04/16 03:52:55;;;;;;;3.30;3.00;;;9.50;68.00;;;;;;5057072;28;20037;-65
2022/04/16 04:00:58;;;;;;;;;;;9.40;68.20;;;;;;5056955;28;20123;-67
2022/04/16 04:03:24;;;;;;;3.20;2.45;;;9.40;68.60;;;;;;5053465;28;20015;-66
2022/04/16 04:05:53;;;;;;;2.70;2.50;;;9.30;67.70;;;;;;5054296;28;20298;-67
2022/04/16 04:08:20;;;;;;;2.70;2.45;;;9.30;68.00;;;;;;5053959;28;20458;-65
2022/04/16 04:10:47;;;;;;;2.80;2.60;;;9.30;68.20;;;;;;5072498;28;20059;-66
2022/04/16 04:13:13;;;;;;;4.13;2.88;;;9.30;68.30;;;;;;5054996;28;20036;-67
2022/04/16 04:15:42;;;;;;;3.20;2.75;;;9.30;68.30;;;;;;5055100;28;20035;-67
2022/04/16 04:18:08;;;;;;;3.53;2.72;;;9.30;68.50;;;;;;5061300;28;20039;-67
2022/04/16 04:20:35;;;;;;;3.30;2.72;;;9.20;68.30;;;;;;5055591;28;20041;-67
2022/04/16 04:23:04;;;;;;;2.72;2.53;;;9.20;68.40;;;;;;5055827;28;20059;-66
2022/04/16 04:25:30;;;;;;;5.13;2.70;;;9.20;68.40;;;;;;5054865;28;20037;-66
2022/04/16 04:27:56;;;;;;;3.33;2.75;;;9.10;68.30;;;;;;5058031;28;20047;-67
2022/04/16 04:30:22;;;;;;;3.92;2.50;;;9.10;68.30;;;;;;5055443;28;20336;-67
2022/04/16 04:32:48;;;;;;;3.00;2.70;;;9.10;68.30;;;;;;5055413;28;20039;-66
2022/04/16 04:35:14;;;;;;;3.17;2.80;;;9.10;68.30;;;;;;5051486;28;20270;-66
2022/04/16 04:37:40;;;;;;;2.80;2.60;;;9.10;68.30;;;;;;5055751;28;20040;-64
2022/04/16 04:40:06;;;;;;;2.85;2.65;;;9.10;68.40;;;;;;5052791;28;20033;-65
2022/04/16 04:42:34;;;;;;;3.33;2.65;;;9.10;68.40;;;;;;5054596;28;20580;-65
2022/04/16 04:45:09;;;;;;;2.90;2.70;;;9.10;68.40;;;;;;5056760;28;20087;-67
2022/04/16 04:47:35;;;;;;;5.38;3.00;;;9.00;68.50;;;;;;5058735;28;20272;-66
2022/04/16 04:50:01;;;;;;;3.20;2.75;;;9.10;68.20;;;;;;5054314;28;20238;-65
2022/04/16 04:52:27;;;;;;;2.83;2.63;;;9.00;68.10;;;;;;5054218;28;20149;-66
2022/04/16 04:54:53;;;;;;;4.25;2.72;;;9.00;68.10;;;;;;5054277;28;20186;-67
2022/04/16 04:57:19;;;;;;;3.40;3.10;;;9.00;68.10;;;;;;5054793;28;20032;-67
2022/04/16 04:59:45;;;;;;;2.95;2.75;;;9.00;68.20;;;;;;5056244;28;20163;-66
2022/04/16 05:02:10;;;;;;;3.38;2.72;;;9.00;68.20;;;;;;5054655;28;20025;-66
2022/04/16 05:04:36;;;;;;;6.40;2.95;;;9.00;68.40;;;;;;5052013;28;20033;-66
2022/04/16 05:07:03;;;;;;;4.18;2.70;;;8.90;68.40;;;;;;5053985;28;20036;-64
2022/04/16 05:09:29;;;;;;;3.47;3.17;;;8.80;68.30;;;;;;5052641;28;20028;-66
2022/04/16 05:11:55;;;;;;;3.90;3.05;;;8.90;68.60;;;;;;5054517;28;20041;-66
2022/04/16 05:14:21;;;;;;;3.72;3.13;;;8.80;68.70;;;;;;5054711;28;20060;-63
2022/04/16 05:16:47;;;;;;;3.13;2.90;;;8.80;68.90;;;;;;5056438;28;20513;-66
2022/04/16 05:19:14;;;;;;;3.88;3.17;;;8.80;69.00;;;;;;5054713;28;20174;-66
2022/04/16 05:21:40;;;;;;;3.17;2.88;;;8.70;70.00;;;;;;5052713;28;20654;-67
2022/04/16 05:24:06;;;;;;;3.47;3.13;;;8.80;69.40;;;;;;5053850;28;20319;-67
2022/04/16 05:26:33;;;;;;;4.32;3.25;;;8.70;69.40;;;;;;5053975;28;20341;-66
2022/04/16 05:28:59;;;;;;;3.22;2.92;;;8.70;69.50;;;;;;5054068;28;20039;-66
2022/04/16 05:31:29;;;;;;;3.70;3.03;;;8.70;69.70;;;;;;5054396;28;20133;-67
2022/04/16 05:36:39;;;;;;;3.40;2.85;;;8.70;69.80;;;;;;5053514;28;20040;-66
2022/04/16 05:39:05;;;;;;;4.70;3.15;;;8.80;69.90;;;;;;5053044;28;20476;-66
2022/04/16 05:41:34;;;;;;;3.63;3.30;;;8.80;70.10;;;;;;5054330;28;20033;-66
2022/04/16 05:44:04;;;;;;;3.40;2.97;;;8.80;70.00;;;;;;5056201;28;20564;-67
2022/04/16 05:46:30;;;;;;;3.60;3.15;;;8.90;70.10;;;;;;5052010;28;20720;-66
2022/04/16 05:48:55;;;;;;;3.35;3.05;;;8.90;70.00;;;;;;5055967;28;20037;-66
2022/04/16 05:51:22;;;;;;;3.58;3.08;;;8.90;70.10;;;;;;5055989;28;20508;-66
2022/04/16 05:53:49;;;;;;;3.88;3.47;;;8.90;70.20;;;;;;5056246;28;20025;-66
2022/04/16 05:56:15;;;;;;;3.50;3.20;;;9.00;70.40;;;;;;5057742;28;20414;-66
2022/04/16 05:58:42;;;;;;;3.60;3.30;;;9.00;70.50;;;;;;5057557;28;20101;-67
2022/04/16 06:01:08;;;;;;;4.93;3.53;;;9.00;70.40;;;;;;5057257;28;20074;-67
2022/04/16 06:03:41;;;;;;;4.38;3.78;;;9.10;70.50;;;;;;5056437;28;20041;-66
2022/04/16 06:06:07;;;;;;;3.78;3.47;;;9.10;70.60;;;;;;5057447;28;20036;-65
2022/04/16 06:08:33;;;;;;;5.45;3.63;;;9.10;70.60;;;;;;5051863;28;20639;-66
2022/04/16 06:10:59;;;;;;;5.88;4.10;;;9.20;70.70;;;;;;5044885;28;20028;-66
2022/04/16 06:13:25;;;;;;;5.82;5.07;;;9.20;70.70;;;;;;5050336;28;20070;-65
2022/04/16 06:15:51;;;;;;;5.00;4.15;;;9.30;71.20;;;;;;5050676;28;20571;-66
2022/04/16 06:18:17;;;;;;;4.80;4.22;;;9.30;71.30;;;;;;5051728;28;20052;-66
2022/04/16 06:20:42;;;;;;;5.38;4.18;;;9.30;71.20;;;;;;5052561;28;20037;-66
2022/04/16 06:23:08;;;;;;;5.82;4.28;;;9.40;71.20;;;;;;5052694;28;20040;-66
2022/04/16 06:25:34;;;;;;;6.75;4.45;;;9.40;71.30;;;;;;5050366;28;20039;-65
2022/04/16 06:27:59;;;;;;;5.38;4.25;;;9.50;71.40;;;;;;5054250;28;20029;-67
2022/04/16 06:30:25;;;;;;;5.43;4.60;;;9.50;71.10;;;;;;5054343;28;20029;-64
2022/04/16 06:32:51;;;;;;;5.40;4.60;;;9.60;71.30;;;;;;5057180;28;20048;-64
2022/04/16 06:35:16;;;;;;;5.78;4.72;;;9.60;71.30;;;;;;5052271;28;20060;-64
2022/04/16 06:37:42;;;;;;;5.47;4.72;;;9.70;71.30;;;;;;5053268;28;20108;-65
2022/04/16 06:40:09;;;;;;;5.25;4.30;;;9.80;71.40;;;;;;5051474;28;20519;-64
2022/04/16 06:42:35;;;;;;;5.45;4.43;;;9.80;71.30;;;;;;5052844;28;20115;-64
2022/04/16 06:45:02;;;;;;;5.63;5.00;;;9.90;71.40;;;;;;5052241;28;20126;-62
2022/04/16 06:47:30;;;;;;;5.80;4.97;;;10.00;71.30;;;;;;5054840;28;20053;-64
2022/04/16 06:49:56;;;;;;;6.22;5.18;;;10.00;71.20;;;;;;5052142;28;20040;-63
2022/04/16 06:52:21;;;;;;;5.45;4.70;;;10.10;71.10;;;;;;5053372;28;20033;-62
2022/04/16 06:54:47;;;;;;;5.72;5.15;;;10.20;71.00;;;;;;5051047;28;20409;-66
2022/04/16 06:57:13;;;;;;;6.60;5.30;;;10.20;70.90;;;;;;5049652;28;20398;-64
2022/04/16 06:59:40;;;;;;;6.78;5.13;;;10.30;71.60;;;;;;5052705;28;20549;-64
2022/04/16 07:02:10;;;;;;;5.93;4.65;;;10.40;70.60;;;;;;5051945;28;20685;-64
2022/04/16 07:04:36;;;;;;;5.78;5.00;;;10.40;70.40;;;;;;5055876;28;20535;-63
2022/04/16 07:07:03;;;;;;;5.10;4.57;;;10.50;70.40;;;;;;5057777;28;20401;-63
2022/04/16 07:09:28;;;;;;;6.70;5.18;;;10.60;70.20;;;;;;5056435;28;20040;-64
2022/04/16 07:11:54;;;;;;;5.47;4.90;;;10.60;70.20;;;;;;5056884;28;20738;-64
2022/04/16 07:14:20;;;;;;;7.90;5.35;;;10.60;70.20;;;;;;5056309;28;20041;-64
2022/04/16 07:16:46;;;;;;;6.18;5.18;;;10.70;70.00;;;;;;5058797;28;20051;-64
2022/04/16 07:19:11;;;;;;;7.15;5.15;;;10.70;69.90;;;;;;5056147;28;20040;-64
2022/04/16 07:21:37;;;;;;;6.00;5.05;;;10.70;70.00;;;;;;5055906;28;20053;-64
2022/04/16 07:24:03;;;;;;;5.63;5.00;;;10.80;70.10;;;;;;5056398;28;20029;-64
2022/04/16 07:26:29;;;;;;;5.88;5.00;;;10.90;69.90;;;;;;5056925;28;20033;-64
2022/04/16 07:28:55;;;;;;;5.70;4.65;;;10.90;69.70;;;;;;5058336;28;20048;-64
2022/04/16 07:31:20;;;;;;;5.78;4.82;;;11.00;69.70;;;;;;5054977;28;20504;-61
2022/04/16 07:33:46;;;;;;;4.63;4.10;;;11.00;69.40;;;;;;5054254;28;20044;-64
2022/04/16 07:36:11;;;;;;;5.82;3.80;;;11.10;69.00;;;;;;5053773;28;20391;-63
2022/04/16 07:38:37;;;;;;;4.10;3.70;;;11.10;68.80;;;;;;5053735;28;20024;-64
2022/04/16 07:41:03;;;;;;;4.13;3.72;;;11.20;68.80;;;;;;5054829;28;20036;-63
2022/04/16 07:43:30;;;;;;;4.03;3.55;;;11.30;68.30;;;;;;5057078;28;20261;-62
2022/04/16 07:45:55;;;;;;;3.53;3.22;;;11.30;67.60;;;;;;5055813;28;20033;-65
2022/04/16 07:48:21;;;;;;;4.38;3.35;;;11.40;67.50;;;;;;5053690;28;21516;-66
2022/04/16 07:50:47;;;;;;;3.75;3.35;;;11.50;67.30;;;;;;5052668;28;20036;-66
2022/04/16 07:53:13;;;;;;;3.85;3.45;;;11.50;66.90;;;;;;5055766;28;20044;-66
2022/04/16 07:55:38;;;;;;;4.07;3.67;;;11.60;66.80;;;;;;5054796;28;20444;-66
2022/04/16 07:58:04;;;;;;;3.80;3.42;;;11.70;66.70;;;;;;5054225;28;20048;-66
2022/04/16 08:00:30;;;;;;;3.67;3.38;;;11.80;66.40;;;;;;5056001;28;20028;-66
2022/04/16 08:02:56;;;;;;;3.50;3.20;;;11.90;66.20;;;;;;5051282;28;20040;-64
2022/04/16 08:05:21;;;;;;;3.60;3.20;;;11.90;65.80;;;;;;5054432;28;20119;-66
2022/04/16 08:07:47;;;;;;;3.67;3.35;;;12.10;65.70;;;;;;5054814;28;20037;-66
2022/04/16 08:10:13;;;;;;;4.15;3.05;;;12.10;65.20;;;;;;5050523;28;20032;-66
2022/04/16 08:12:39;;;;;;;3.33;3.03;;;12.20;64.80;;;;;;5051328;28;20075;-65
2022/04/16 08:15:06;;;;;;;4.50;4.10;;;12.20;64.30;;;;;;5055768;28;20051;-64
2022/04/16 08:17:32;;;;;;;4.25;3.60;;;12.30;63.80;;;;;;5069895;28;20031;-65
2022/04/16 08:19:57;;;;;;;4.43;3.97;;;12.30;63.40;;;;;;5054485;28;20032;-63
2022/04/16 08:22:23;;;;;;;5.00;4.15;;;12.30;63.40;;;;;;5056560;28;20040;-64
2022/04/16 08:27:35;;;;;;;3.88;3.40;;;12.30;63.10;;;;;;5054416;28;20596;-64
2022/04/16 08:30:01;;;;;;;4.13;3.72;;;12.30;62.80;;;;;;5050136;28;20033;-62
2022/04/16 08:32:26;;;;;;;3.88;3.55;;;12.30;62.60;;;;;;5055896;28;20033;-63
2022/04/16 08:34:52;;;;;;;4.40;4.00;;;12.40;62.80;;;;;;5053999;28;20028;-65
2022/04/16 08:37:18;;;;;;;4.38;3.97;;;12.40;62.90;;;;;;5054603;28;20512;-63
2022/04/16 08:39:44;;;;;;;5.75;4.18;;;12.40;62.90;;;;;;5053693;28;20024;-63
2022/04/16 08:42:10;;;;;;;4.20;3.80;;;12.40;62.60;;;;;;5054925;28;20032;-65
2022/04/16 08:44:38;;;;;;;4.28;3.88;;;12.40;62.50;;;;;;5053888;28;20064;-65
2022/04/16 08:47:05;;;;;;;4.35;3.95;;;12.40;62.70;;;;;;5052737;28;20033;-64
2022/04/16 08:49:33;;;;;;;4.38;3.97;;;12.40;62.70;;;;;;5056319;28;20127;-63
2022/04/16 08:51:59;;;;;;;4.55;4.10;;;12.40;62.70;;;;;;5057114;28;20044;-64
2022/04/16 08:54:25;;;;;;;4.75;3.90;;;12.50;62.70;;;;;;5060308;28;20033;-64
2022/04/16 08:56:51;;;;;;;4.30;3.83;;;12.50;62.70;;;;;;5057224;28;20036;-65
2022/04/16 08:59:17;;;;;;;4.82;4.30;;;12.50;62.80;;;;;;5057227;28;20517;-64
2022/04/16 09:01:43;;;;;;;4.57;4.18;;;12.50;62.70;;;;;;5056983;28;20928;-65
2022/04/16 09:04:19;;;;;;;4.80;4.22;;;12.50;62.80;;;;;;5056739;28;20032;-64
2022/04/16 09:06:55;;;;;;;5.45;4.40;;;12.60;62.60;;;;;;5055948;28;20040;-64
2022/04/16 09:09:20;;;;;;;4.47;4.07;;;12.60;62.10;;;;;;5057909;28;20052;-64
2022/04/16 09:11:50;;;;;;;5.50;4.78;;;12.60;62.20;;;;;;5055672;28;20505;-64
2022/04/16 09:14:16;;;;;;;5.82;4.85;;;12.60;62.10;;;;;;5055387;28;20036;-66
2022/04/16 09:16:42;;;;;;;7.18;5.10;;;12.60;63.00;;;;;;5057033;28;20035;-66
2022/04/16 09:19:13;;;;;;;7.43;4.90;;;12.60;61.90;;;;;;5057098;28;20052;-66
2022/04/16 09:21:39;;;;;;;5.70;4.72;;;12.50;61.80;;;;;;5057314;28;20029;-64
2022/04/16 09:24:05;;;;;;;5.28;4.78;;;12.50;61.90;;;;;;5055507;28;20033;-65
2022/04/16 09:26:33;;;;;;;4.50;4.10;;;12.50;62.00;;;;;;5059507;28;20029;-64
2022/04/16 09:29:09;;;;;;;4.95;4.35;;;12.50;62.00;;;;;;5061967;28;20517;-66
2022/04/16 09:31:38;;;;;;;4.88;4.30;;;12.50;62.20;;;;;;5061322;28;20059;-66
2022/04/16 09:34:04;;;;;;;6.35;5.13;;;12.50;62.40;;;;;;5060819;28;20062;-66
2022/04/16 09:36:30;;;;;;;5.30;4.80;;;12.50;62.40;;;;;;5076083;28;20060;-66
2022/04/16 09:39:06;;;;;;;5.43;4.72;;;12.50;62.50;;;;;;5064780;28;20052;-64
2022/04/16 09:41:40;;;;;;;5.60;4.88;;;12.40;62.70;;;;;;5061280;28;20060;-64
2022/04/16 09:44:20;;;;;;;11.20;7.90;;;12.40;62.70;;;;;;5060282;28;20036;-64
2022/04/16 09:46:47;;;;;;;6.50;5.70;;;12.40;62.60;;;;;;5060858;28;20343;-64
2022/04/16 09:49:14;;;;;;;6.47;4.93;;;12.40;62.70;;;;;;5060384;28;20095;-64
2022/04/16 09:51:42;;;;;;;7.03;5.38;;;12.30;62.80;;;;;;5057774;28;20032;-63
2022/04/16 09:54:09;;;;;;;5.93;4.90;;;12.30;62.70;;;;;;5055351;28;20037;-64
2022/04/16 09:56:40;;;;;;;5.25;4.55;;;12.30;62.70;;;;;;5063446;28;20036;-65
2022/04/16 09:59:09;;;;;;;5.70;5.10;;;12.20;62.80;;;;;;5062290;28;20025;-64
2022/04/16 10:01:39;;;;;;;7.38;5.40;;;12.20;62.80;;;;;;5061424;28;20045;-64
2022/04/16 10:04:06;;;;;;;6.82;4.53;;;12.20;62.90;;;;;;5066496;28;20079;-63
2022/04/16 10:06:33;;;;;;;6.03;5.15;;;12.10;63.20;;;;;;5059671;28;20117;-64
2022/04/16 10:09:00;;;;;;;5.72;4.38;;;12.10;63.40;;;;;;5059093;28;20123;-64
2022/04/16 10:14:46;;;;;;;6.32;4.80;;;12.10;63.70;;;;;;5058079;28;20500;-65
2022/04/16 10:17:28;;;;;;;5.30;4.63;;;12.20;63.60;;;;;;5058780;28;20029;-64
2022/04/16 10:20:04;;;;;;;5.68;5.07;;;12.20;63.50;;;;;;5073717;28;20107;-64
2022/04/16 10:22:30;;;;;;;5.18;4.68;;;12.20;63.50;;;;;;5064516;28;20124;-64
2022/04/16 10:24:58;;;;;;;4.85;4.00;;;12.20;63.60;;;;;;5058246;28;20111;-65
2022/04/16 10:27:29;;;;;;;5.95;4.82;;;12.30;64.60;;;;;;5058492;28;20050;-65
2022/04/16 10:30:03;;;;;;;5.57;4.78;;;12.30;63.50;;;;;;5059013;28;20048;-64
2022/04/16 10:32:45;;;;;;;7.47;5.00;;;12.30;63.30;;;;;;5058342;28;20029;-63
2022/04/16 10:35:15;;;;;;;5.30;4.78;;;12.40;62.90;;;;;;5061363;28;20033;-64
2022/04/16 10:37:43;;;;;;;5.40;4.90;;;12.40;62.90;;;;;;5056387;28;20041;-64
2022/04/16 10:40:21;;;;;;;4.93;4.30;;;12.40;63.20;;;;;;5073712;28;20040;-64
2022/04/16 10:42:59;;;;;;;5.60;5.03;;;12.50;63.10;;;;;;5059193;28;20047;-64
2022/04/16 10:45:25;;;;;;;7.85;5.55;;;12.50;64.00;;;;;;5058865;28;20032;-65
2022/04/16 10:47:54;;;;;;;7.05;5.88;;;12.50;63.10;;;;;;5060269;28;20036;-65
2022/04/16 10:50:21;;;;;;;5.90;5.22;;;12.50;63.40;;;;;;5060143;28;20028;-65
2022/04/16 10:52:57;;;;;;;6.32;5.22;;;12.50;63.80;;;;;;5059134;28;20759;-64
2022/04/16 10:55:30;;;;;;;5.18;4.68;;;12.50;64.00;;;;;;5059061;28;20029;-65
2022/04/16 10:58:04;;;;;;;6.68;5.97;;;12.50;64.10;;;;;;5058209;28;20082;-65
2022/04/16 11:00:46;;;;;;;5.63;5.00;;;12.60;63.90;;;;;;5062920;28;20036;-64
2022/04/16 11:03:27;;;;;;;5.97;5.30;;;12.60;64.10;;;;;;5059291;28;20031;-64
2022/04/16 11:06:09;;;;;;;6.43;5.22;;;12.70;64.00;;;;;;5057708;28;20033;-64
2022/04/16 11:08:40;;;;;;;7.45;5.22;;;12.80;63.40;;;;;;5058859;28;20536;-63
2022/04/16 11:11:06;;;;;;;7.80;5.75;;;12.80;63.40;;;;;;5057334;28;20043;-63
2022/04/16 11:13:33;;;;;;;7.60;5.63;;;12.90;63.30;;;;;;5059964;28;20052;-63
2022/04/16 11:16:00;;;;;;;6.00;5.40;;;12.90;63.00;;;;;;5057121;28;20059;-64
2022/04/16 11:18:35;;;;;;;5.95;5.18;;;12.90;62.70;;;;;;5059305;28;20045;-64
2022/04/16 11:21:07;;;;;;;6.82;5.57;;;12.90;62.60;;;;;;5058292;28;20030;-64
2022/04/16 11:23:40;;;;;;;6.97;5.18;;;12.90;62.40;;;;;;5059275;28;20029;-65
2022/04/16 11:34:26;;;;;;;6.18;4.78;;;12.80;62.30;;;;;;5057763;28;20094;-64
2022/04/16 11:36:53;;;;;;;5.03;4.53;;;12.80;62.20;;;;;;5058513;28;20524;-63
2022/04/16 11:39:24;;;;;;;4.82;4.30;;;12.70;62.10;;;;;;5058961;28;20025;-64
2022/04/16 11:41:57;;;;;;;4.95;4.45;;;12.70;62.40;;;;;;5059359;28;20509;-64
2022/04/16 11:44:41;;;;;;;4.97;4.25;;;12.70;62.50;;;;;;5058817;28;20088;-64
2022/04/16 11:47:18;;;;;;;5.50;4.50;;;12.60;62.60;;;;;;5058647;28;22565;-64
2022/04/16 11:49:48;;;;;;;5.00;4.47;;;12.60;62.60;;;;;;5063604;28;20037;-65
2022/04/16 11:52:14;;;;;;;4.82;4.32;;;12.60;62.70;;;;;;5057636;28;20059;-65
2022/04/16 11:54:40;;;;;;;6.22;4.65;;;12.60;62.90;;;;;;5059819;28;20416;-64
2022/04/16 11:57:06;;;;;;;5.05;3.92;;;12.60;62.90;;;;;;5056765;28;20037;-63
2022/04/16 11:59:32;;;;;;;4.68;4.20;;;12.60;62.80;;;;;;5057549;28;20037;-64
2022/04/16 12:02:06;;;;;;;5.43;4.00;;;12.60;62.50;;;;;;5058734;28;20033;-64
2022/04/16 12:04:41;;;;;;;5.07;4.15;;;12.60;62.60;;;;;;5055468;28;20585;-64
2022/04/16 12:07:17;;;;;;;5.55;3.95;;;12.60;62.60;;;;;;5056579;28;20090;-64
2022/04/16 12:09:44;;;;;;;5.65;4.00;;;12.60;62.30;;;;;;5057552;28;20033;-64
2022/04/16 12:12:14;;;;;;;4.60;4.20;;;12.60;62.60;;;;;;5054683;28;20075;-64
2022/04/16 12:14:47;;;;;;;4.28;3.88;;;12.70;62.50;;;;;;5063018;28;20029;-64
2022/04/16 12:17:21;;;;;;;4.53;4.13;;;12.70;62.50;;;;;;5058659;28;20100;-65
2022/04/16 12:19:55;;;;;;;4.05;3.65;;;12.70;62.20;;;;;;5057734;28;20036;-64
2022/04/16 12:22:20;;;;;;;4.25;3.70;;;12.80;62.50;;;;;;5059150;28;20044;-64
2022/04/16 12:24:46;;;;;;;4.25;3.80;;;12.80;62.70;;;;;;5056086;28;20040;-64
2022/04/16 12:27:23;;;;;;;3.90;3.58;;;12.90;62.50;;;;;;5058512;28;20151;-64
2022/04/16 12:29:49;;;;;;;4.05;3.65;;;13.00;62.20;;;;;;5052286;28;20205;-63
2022/04/16 12:32:24;;;;;;;3.88;3.53;;;13.10;61.90;;;;;;5058751;28;20039;-64
2022/04/16 12:34:51;;;;;;;3.85;3.45;;;13.20;61.70;;;;;;5056050;28;20079;-64
2022/04/16 12:37:16;;;;;;;3.60;3.30;;;13.20;61.80;;;;;;5055268;28;20033;-64
2022/04/16 12:39:42;;;;;;;4.32;3.67;;;13.30;61.50;;;;;;5056382;28;20469;-65
2022/04/16 12:42:08;;;;;;;3.40;3.10;;;13.40;61.20;;;;;;5055073;28;20044;-65
2022/04/16 12:44:33;;;;;;;3.75;3.10;;;13.50;61.10;;;;;;5053229;28;20063;-64
2022/04/16 12:46:59;;;;;;;3.67;3.38;;;13.60;60.80;;;;;;5054228;28;20044;-64
2022/04/16 12:49:24;;;;;;;3.55;3.25;;;13.60;60.80;;;;;;5053610;28;20136;-64
2022/04/16 12:51:50;;;;;;;4.03;3.60;;;13.70;60.70;;;;;;5053582;28;20040;-65
2022/04/16 12:54:16;;;;;;;3.85;3.55;;;13.80;60.10;;;;;;5056025;28;20033;-64
2022/04/16 12:56:43;;;;;;;4.85;3.35;;;13.90;60.00;;;;;;5055333;28;20095;-64
2022/04/16 12:59:09;;;;;;;3.67;3.33;;;13.90;59.70;;;;;;5052998;28;20055;-65
2022/04/16 13:01:35;;;;;;;3.72;3.40;;;14.00;59.70;;;;;;5054765;28;20184;-64
2022/04/16 13:04:01;;;;;;;3.50;3.15;;;14.10;59.60;;;;;;5051520;28;20021;-63
2022/04/16 13:06:27;;;;;;;3.47;3.17;;;14.10;59.50;;;;;;5053719;28;20068;-64
2022/04/16 13:08:56;;;;;;;3.63;3.17;;;14.10;59.20;;;;;;5057169;28;20434;-64
2022/04/16 13:11:22;;;;;;;4.40;3.03;;;14.20;59.00;;;;;;5055211;28;20529;-64
2022/04/16 13:13:50;;;;;;;3.40;3.10;;;14.20;58.80;;;;;;5055707;28;20070;-64
2022/04/16 13:16:16;;;;;;;3.60;3.30;;;14.20;58.60;;;;;;5059159;28;20040;-64
2022/04/16 13:18:41;;;;;;;3.85;3.50;;;14.20;58.60;;;;;;5058615;28;20032;-64